MTHOOD messages


fromtotime message
MTHOOD N7QME 06/05 12:08:29z Send another hum 53 10 74 12
MTHOOD N7QME 06/05 11:53:37z Send another temps 57.7 76.5 49.9 64.3
MTHOOD N7QME 06/05 11:15:14z Send another hum 53 15 72 13
MTHOOD N7QME 06/05 11:01:44z Send another temps 57.9 76.6 50.2 64.4
MTHOOD N7QME 06/05 10:07:29z Send another temps 58.2 76.6 50.7 64.4
MTHOOD N7QME 06/05 09:26:49z Send another hum 54 13 69 15
MTHOOD N7QME 06/05 09:12:19z Send another temps 58.4 76.7 51.4 64.5
MTHOOD N7QME 06/05 08:31:16z Send another hum 54 12 68 10
MTHOOD N7QME 06/05 08:17:49z Send another temps 58.7 76.8 52.0 64.5
MTHOOD N7QME 06/05 07:38:49z Send another hum 54 10 67 12
MTHOOD N7QME 06/05 07:25:47z Send another temps 58.9 76.9 52.4 64.6
MTHOOD N7QME 06/05 06:45:04z Send another hum 54 10 66 11
MTHOOD N7QME 06/05 06:32:44z Send another temps 59.0 77.0 53.2 64.6
MTHOOD N7QME 06/05 05:50:31z Send another hum 53 12 66 12
MTHOOD N7QME 06/05 05:37:19z Send another temps 59.2 77.3 53.9 64.7
MTHOOD N7QME 06/05 04:55:24z Send another hum 53 11 66 15
MTHOOD N7QME 06/05 04:40:29z Send another temps 59.3 77.4 54.5 64.8
MTHOOD N7QME 06/05 04:00:34z Send another hum 53 10 65 14
MTHOOD N7QME 06/05 03:45:49z Send another temps 59.3 77.6 55.1 64.9
MTHOOD N7QME 06/05 03:06:14z Send another hum 53 15 64 12
MTHOOD N7QME 06/05 02:53:44z Send another temps 59.4 77.8 55.6 65.0
MTHOOD N7QME 06/05 02:13:24z Send another hum 53 14 63 11
MTHOOD N7QME 06/05 02:01:04z Send another temps 59.4 77.9 56.3 65.5
MTHOOD N7QME 06/05 01:21:54z Send another hum 53 13 62 12
MTHOOD N7QME 06/05 01:08:14z Send another temps 59.4 78.0 56.8 66.5
MTHOOD N7QME 06/05 00:27:49z Send another hum 53 12 61 15
MTHOOD N7QME 06/05 00:13:44z Send another temps 59.0 78.1 57.2 68.4
MTHOOD N7QME 06/04 23:31:39z Send another hum 54 10 61 14
MTHOOD N7QME 06/04 23:18:09z Send another temps 58.1 78.2 57.1 72.4
MTHOOD N7QME 06/04 22:35:24z Send another hum 54 10 60 13
MTHOOD N7QME 06/04 22:21:44z Send another temps 57.5 78.0 56.4 78.7
MTHOOD N7QME 06/04 21:41:14z Send another hum 53 12 61 11
MTHOOD N7QME 06/04 21:29:03z Send another temps 56.7 77.8 55.1 64.3
MTHOOD N7QME 06/04 20:49:29z Send another hum 53 11 61 10
MTHOOD N7QME 06/04 20:35:25z Send another temps 56.5 77.6 54.3 64.0
MTHOOD N7QME 06/04 19:55:59z Send another hum 53 10 62 10
MTHOOD N7QME 06/04 19:41:44z Send another temps 56.3 77.4 52.9 63.7
MTHOOD N7QME 06/04 18:59:52z Send another hum 53 15 62 14
MTHOOD N7QME 06/04 18:46:24z Send another temps 56.3 77.2 51.5 63.4
MTHOOD N7QME 06/04 18:03:39z Send another hum 53 14 66 13
MTHOOD N7QME 06/04 17:50:59z Send another temps 56.3 77.0 49.9 63.3
MTHOOD N7QME 06/04 17:10:14z Send another hum 53 13 65 12
MTHOOD N7QME 06/04 16:57:44z Send another temps 56.4 76.7 49.0 63.3
MTHOOD N7QME 06/04 16:18:49z Send another hum 53 12 64 10
MTHOOD N7QME 06/04 16:04:04z Send another temps 56.6 76.6 48.7 63.4
MTHOOD N7QME 06/04 15:25:44z Send another hum 53 10 74 10
MTHOOD N7QME 06/04 15:11:39z Send another temps 56.8 76.5 48.7 63.5
MTHOOD N7QME 06/04 14:18:28z Send another temps 57.1 76.4 48.7 63.5
MTHOOD N7QME 06/04 13:39:41z Send another hum 53 12 72 13
MTHOOD N7QME 06/04 13:27:24z Send another temps 57.4 76.4 48.8 63.5
MTHOOD N7QME 06/04 12:48:10z Send another hum 53 11 66 12
MTHOOD N7QME 06/04 12:34:39z Send another temps 57.7 76.2 49.1 63.6
MTHOOD N7QME 06/04 11:53:54z Send another hum 53 12 65 10
MTHOOD N7QME 06/04 11:39:14z Send another temps 58.1 76.4 50.0 63.9
MTHOOD N7QME 06/04 10:58:34z Send another hum 54 15 67 10
MTHOOD N7QME 06/04 10:45:01z Send another temps
MTHOOD N7QME 06/04 10:07:49z Send another hum 54 14 70 12
MTHOOD N7QME 06/04 09:53:41z Send another temps 58.6 77.0 52.1 64.2
MTHOOD N7QME 06/04 09:13:14z Send another hum 54 13 71 13
MTHOOD N7QME 06/04 08:59:21z Send another temps 58.8 77.2 52.7 64.2
MTHOOD N7QME 06/04 08:18:04z Send another hum 54 11 70 12
MTHOOD N7QME 06/04 08:04:34z Send another temps 59.0 77.3 53.3 64.1
MTHOOD N7QME 06/04 07:25:01z Send another hum 53 10 66 15
MTHOOD N7QME 06/04 07:11:14z Send another temps 59.2 77.3 53.8 64.1
MTHOOD N7QME 06/04 06:29:54z Send another hum 53 10 63 10
MTHOOD N7QME 06/04 06:16:34z Send another temps 59.4 77.5 54.4 64.1
MTHOOD N7QME 06/04 05:34:44z Send another hum 53 12 62 12
MTHOOD N7QME 06/04 05:19:59z Send another temps 59.5 77.6 55.2 64.2
MTHOOD N7QME 06/04 04:40:34z Send another hum 53 11 61 11
MTHOOD N7QME 06/04 04:28:14z Send another temps 59.6 77.8 55.9 64.2
MTHOOD N7QME 06/04 03:48:21z Send another hum 53 12 59 12
MTHOOD N7QME 06/04 03:33:26z Send another temps 59.7 78.0 56.6 64.4
MTHOOD N7QME 06/04 02:51:01z Send another hum 53 15 53 15
MTHOOD N7QME 06/04 02:38:39z Send another temps 59.7 78.1 57.3 64.7
MTHOOD N7QME 06/04 01:58:09z Send another hum 53 14 41 14
MTHOOD N7QME 06/04 01:45:00z Send another temps 59.8 78.2 58.2 65.4
MTHOOD N7QME 06/04 01:03:54z Send another hum 53 13 46 12
MTHOOD N7QME 06/04 00:49:49z Send another temps 59.7 78.4 59.4 66.9
MTHOOD N7QME 06/04 00:08:59z Send another hum 53 12 49 11
MTHOOD N7QME 06/03 23:54:44z Send another temps 59.0 78.4 60.0 69.4
MTHOOD N7QME 06/03 23:15:07z Send another hum 54 10 51 10
MTHOOD N7QME 06/03 23:01:39z Send another temps 58.1 78.4 59.8 73.3
MTHOOD N7QME 06/03 22:20:19z Send another hum 54 10 56 15
MTHOOD N7QME 06/03 22:07:09z Send another temps 57.5 78.4 58.3 80.2
MTHOOD N7QME 06/03 21:24:44z Send another hum 54 12 59 14
MTHOOD N7QME 06/03 21:10:14z Send another temps 56.4 78.2 56.6 65.2
MTHOOD N7QME 06/03 20:30:04z Send another hum 53 11 61 13
MTHOOD N7QME 06/03 20:16:59z Send another temps 56.0 78.0 55.6 63.0
MTHOOD N7QME 06/03 19:35:24z Send another hum 53 10 56 11
MTHOOD N7QME 06/03 19:20:39z Send another temps 55.8 77.8 54.4 62.7
MTHOOD N7QME 06/03 18:40:31z Send another hum 53 15 66 10
MTHOOD N7QME 06/03 18:26:49z Send another temps 55.6 77.6 53.6 62.5
MTHOOD N7QME 06/03 17:47:49z Send another hum 53 14 66 10
MTHOOD N7QME 06/03 17:35:44z Send another temps 55.6 77.4 52.7 62.4
MTHOOD N7QME 06/03 16:58:34z Send another hum 53 13 60 14
MTHOOD N7QME 06/03 16:45:59z Send another temps 55.6 77.2 51.6 62.3
MTHOOD N7QME 06/03 16:04:29z Send another hum 53 12 75 13
MTHOOD N7QME 06/03 15:51:45z Send another temps 55.6 77.0 50.8 62.2
MTHOOD N7QME 06/03 15:12:34z Send another hum 53 10 77 11
MTHOOD N7QME 06/03 14:59:49z Send another temps 55.8 76.9 50.0 62.2